sensor_id;sensor_type;location;lat;lon;timestamp;pressure;altitude;pressure_sealevel;temperature;humidity
73981;BME280;62348;51.412;5.436;2023-03-01T00:01:59;102937.16;;;0.11;63.61
73981;BME280;62348;51.412;5.436;2023-03-01T00:04:24;102938.84;;;0.12;63.48
73981;BME280;62348;51.412;5.436;2023-03-01T00:06:50;102937.28;;;0.09;63.85
73981;BME280;62348;51.412;5.436;2023-03-01T00:09:16;102938.44;;;0.07;63.75
73981;BME280;62348;51.412;5.436;2023-03-01T00:11:42;102939.97;;;0.09;64.07
73981;BME280;62348;51.412;5.436;2023-03-01T00:14:07;102939.97;;;0.09;63.69
73981;BME280;62348;51.412;5.436;2023-03-01T00:16:35;102939.25;;;0.07;63.75
73981;BME280;62348;51.412;5.436;2023-03-01T00:19:04;102939.25;;;0.07;63.79
73981;BME280;62348;51.412;5.436;2023-03-01T00:21:30;102944.59;;;0.07;63.82
73981;BME280;62348;51.412;5.436;2023-03-01T00:23:56;102943.88;;;0.05;64.45
73981;BME280;62348;51.412;5.436;2023-03-01T00:26:23;102937.72;;;0.05;63.82
73981;BME280;62348;51.412;5.436;2023-03-01T00:28:49;102937.03;;;0.03;63.59
73981;BME280;62348;51.412;5.436;2023-03-01T00:31:17;102926.41;;;0.03;64.09
73981;BME280;62348;51.412;5.436;2023-03-01T00:33:43;102932.84;;;0.00;64.16
73981;BME280;62348;51.412;5.436;2023-03-01T00:36:10;102933.09;;;-0.03;64.71
73981;BME280;62348;51.412;5.436;2023-03-01T00:38:37;102931.41;;;-0.04;65.18
73981;BME280;62348;51.412;5.436;2023-03-01T00:41:06;102933.25;;;-0.05;65.37
73981;BME280;62348;51.412;5.436;2023-03-01T00:43:32;102930.84;;;-0.08;64.90
73981;BME280;62348;51.412;5.436;2023-03-01T00:46:06;102923.31;;;-0.12;65.21
73981;BME280;62348;51.412;5.436;2023-03-01T00:48:32;102933.09;;;-0.13;66.04
73981;BME280;62348;51.412;5.436;2023-03-01T00:51:07;102924.28;;;-0.13;65.60
73981;BME280;62348;51.412;5.436;2023-03-01T00:53:33;102929.06;;;-0.17;65.27
73981;BME280;62348;51.412;5.436;2023-03-01T00:55:59;102930.00;;;-0.18;64.98
73981;BME280;62348;51.412;5.436;2023-03-01T00:58:24;102919.81;;;-0.23;64.97
73981;BME280;62348;51.412;5.436;2023-03-01T01:00:50;102915.19;;;-0.21;65.15
73981;BME280;62348;51.412;5.436;2023-03-01T01:03:16;102918.94;;;-0.23;64.75
73981;BME280;62348;51.412;5.436;2023-03-01T01:05:41;102912.78;;;-0.24;64.96
73981;BME280;62348;51.412;5.436;2023-03-01T01:08:07;102917.16;;;-0.23;65.92
73981;BME280;62348;51.412;5.436;2023-03-01T01:10:34;102911.84;;;-0.23;65.93
73981;BME280;62348;51.412;5.436;2023-03-01T01:12:59;102900.50;;;-0.25;65.37
73981;BME280;62348;51.412;5.436;2023-03-01T01:15:25;102899.63;;;-0.25;65.60
73981;BME280;62348;51.412;5.436;2023-03-01T01:17:50;102902.72;;;-0.30;66.14
73981;BME280;62348;51.412;5.436;2023-03-01T01:20:16;102899.06;;;-0.29;65.74
73981;BME280;62348;51.412;5.436;2023-03-01T01:22:41;102900.31;;;-0.33;65.41
73981;BME280;62348;51.412;5.436;2023-03-01T01:25:07;102893.75;;;-0.38;65.74
73981;BME280;62348;51.412;5.436;2023-03-01T01:27:33;102893.63;;;-0.37;65.99
73981;BME280;62348;51.412;5.436;2023-03-01T01:29:58;102876.25;;;-0.41;66.13
73981;BME280;62348;51.412;5.436;2023-03-01T01:32:23;102879.88;;;-0.42;65.73
73981;BME280;62348;51.412;5.436;2023-03-01T01:34:49;102875.69;;;-0.45;66.06
73981;BME280;62348;51.412;5.436;2023-03-01T01:37:14;102873.88;;;-0.44;65.81
73981;BME280;62348;51.412;5.436;2023-03-01T01:39:40;102865.91;;;-0.44;66.52
73981;BME280;62348;51.412;5.436;2023-03-01T01:42:05;102865.19;;;-0.46;66.53
73981;BME280;62348;51.412;5.436;2023-03-01T01:44:33;102873.16;;;-0.46;66.49
73981;BME280;62348;51.412;5.436;2023-03-01T01:47:03;102864.63;;;-0.50;66.65
73981;BME280;62348;51.412;5.436;2023-03-01T01:49:46;102866.31;;;-0.49;66.48
73981;BME280;62348;51.412;5.436;2023-03-01T01:52:23;102858.34;;;-0.49;65.82
73981;BME280;62348;51.412;5.436;2023-03-01T01:55:11;102859.06;;;-0.47;65.92
73981;BME280;62348;51.412;5.436;2023-03-01T01:57:45;102857.78;;;-0.52;66.16
73981;BME280;62348;51.412;5.436;2023-03-01T02:00:20;102860.72;;;-0.46;65.35
73981;BME280;62348;51.412;5.436;2023-03-01T02:02:47;102857.91;;;-0.54;66.47
73981;BME280;62348;51.412;5.436;2023-03-01T02:07:45;102846.84;;;-0.59;67.15
73981;BME280;62348;51.412;5.436;2023-03-01T02:10:11;102840.00;;;-0.62;66.15
73981;BME280;62348;51.412;5.436;2023-03-01T02:12:38;102841.13;;;-0.64;66.51
73981;BME280;62348;51.412;5.436;2023-03-01T02:15:05;102841.25;;;-0.66;67.00
73981;BME280;62348;51.412;5.436;2023-03-01T02:17:31;102841.53;;;-0.69;67.40
73981;BME280;62348;51.412;5.436;2023-03-01T02:22:34;102830.31;;;-0.72;66.67
73981;BME280;62348;51.412;5.436;2023-03-01T02:30:45;102827.84;;;-0.74;67.16
73981;BME280;62348;51.412;5.436;2023-03-01T02:33:32;102824.31;;;-0.74;67.32
73981;BME280;62348;51.412;5.436;2023-03-01T02:36:03;102827.09;;;-0.76;67.08
73981;BME280;62348;51.412;5.436;2023-03-01T02:38:30;102822.78;;;-0.77;67.68
73981;BME280;62348;51.412;5.436;2023-03-01T02:40:56;102828.09;;;-0.77;67.62
73981;BME280;62348;51.412;5.436;2023-03-01T02:43:24;102834.53;;;-0.80;67.59
73981;BME280;62348;51.412;5.436;2023-03-01T02:45:53;102830.06;;;-0.79;67.69
73981;BME280;62348;51.412;5.436;2023-03-01T02:48:19;102835.75;;;-0.84;67.21
73981;BME280;62348;51.412;5.436;2023-03-01T02:51:04;102831.00;;;-0.80;67.29
73981;BME280;62348;51.412;5.436;2023-03-01T02:56:00;102837.00;;;-0.88;67.94
73981;BME280;62348;51.412;5.436;2023-03-01T02:58:26;102832.56;;;-0.87;67.95
73981;BME280;62348;51.412;5.436;2023-03-01T03:00:51;102833.53;;;-0.88;67.47
73981;BME280;62348;51.412;5.436;2023-03-01T03:03:19;102834.50;;;-0.89;67.76
73981;BME280;62348;51.412;5.436;2023-03-01T03:05:45;102819.53;;;-0.90;68.19
73981;BME280;62348;51.412;5.436;2023-03-01T03:08:10;102825.13;;;-0.93;68.00
73981;BME280;62348;51.412;5.436;2023-03-01T03:10:39;102832.13;;;-0.92;68.38
73981;BME280;62348;51.412;5.436;2023-03-01T03:13:08;102822.47;;;-0.93;68.14
73981;BME280;62348;51.412;5.436;2023-03-01T03:15:34;102821.75;;;-0.95;68.53
73981;BME280;62348;51.412;5.436;2023-03-01T03:18:01;102822.59;;;-0.95;68.51
73981;BME280;62348;51.412;5.436;2023-03-01T03:20:28;102821.88;;;-0.97;68.06
73981;BME280;62348;51.412;5.436;2023-03-01T03:22:55;102829.03;;;-0.98;68.24
73981;BME280;62348;51.412;5.436;2023-03-01T03:25:22;102824.53;;;-0.97;67.95
73981;BME280;62348;51.412;5.436;2023-03-01T03:27:49;102822.19;;;-1.00;68.23
73981;BME280;62348;51.412;5.436;2023-03-01T03:30:18;102818.66;;;-1.01;68.12
73981;BME280;62348;51.412;5.436;2023-03-01T03:32:45;102819.78;;;-1.03;68.31
73981;BME280;62348;51.412;5.436;2023-03-01T03:35:30;102824.97;;;-1.02;68.77
73981;BME280;62348;51.412;5.436;2023-03-01T03:37:57;102822.56;;;-1.05;68.42
73981;BME280;62348;51.412;5.436;2023-03-01T03:40:34;102825.09;;;-1.03;68.42
73981;BME280;62348;51.412;5.436;2023-03-01T03:43:01;102824.41;;;-1.05;68.53
73981;BME280;62348;51.412;5.436;2023-03-01T03:45:26;102822.72;;;-1.06;68.48
73981;BME280;62348;51.412;5.436;2023-03-01T03:47:52;102820.19;;;-1.08;69.00
73981;BME280;62348;51.412;5.436;2023-03-01T03:50:18;102815.72;;;-1.07;68.99
73981;BME280;62348;51.412;5.436;2023-03-01T03:52:43;102822.72;;;-1.06;69.23
73981;BME280;62348;51.412;5.436;2023-03-01T03:55:11;102810.41;;;-1.07;68.95
73981;BME280;62348;51.412;5.436;2023-03-01T03:57:37;102813.19;;;-1.09;69.07
73981;BME280;62348;51.412;5.436;2023-03-01T04:00:05;102809.72;;;-1.09;69.20
73981;BME280;62348;51.412;5.436;2023-03-01T04:02:31;102814.31;;;-1.11;68.66
73981;BME280;62348;51.412;5.436;2023-03-01T04:04:56;102815.16;;;-1.11;68.53
73981;BME280;62348;51.412;5.436;2023-03-01T04:07:21;102801.19;;;-1.13;68.99
73981;BME280;62348;51.412;5.436;2023-03-01T04:09:47;102803.69;;;-1.11;69.26
73981;BME280;62348;51.412;5.436;2023-03-01T04:12:12;102809.25;;;-1.14;68.81
73981;BME280;62348;51.412;5.436;2023-03-01T04:14:38;102797.94;;;-1.16;69.08
73981;BME280;62348;51.412;5.436;2023-03-01T04:17:03;102795.28;;;-1.16;68.83
73981;BME280;62348;51.412;5.436;2023-03-01T04:19:31;102797.66;;;-1.23;69.36
73981;BME280;62348;51.412;5.436;2023-03-01T04:22:02;102794.28;;;-1.25;69.63
73981;BME280;62348;51.412;5.436;2023-03-01T04:24:33;102789.13;;;-1.27;69.24
73981;BME280;62348;51.412;5.436;2023-03-01T04:26:58;102786.59;;;-1.28;69.66
73981;BME280;62348;51.412;5.436;2023-03-01T04:29:23;102791.91;;;-1.28;69.22
73981;BME280;62348;51.412;5.436;2023-03-01T04:31:49;102786.84;;;-1.31;69.85
73981;BME280;62348;51.412;5.436;2023-03-01T04:34:14;102786.84;;;-1.31;69.93
73981;BME280;62348;51.412;5.436;2023-03-01T04:36:39;102789.38;;;-1.30;69.80
73981;BME280;62348;51.412;5.436;2023-03-01T04:39:05;102784.34;;;-1.33;69.73
73981;BME280;62348;51.412;5.436;2023-03-01T04:41:38;102786.97;;;-1.33;69.59
73981;BME280;62348;51.412;5.436;2023-03-01T04:44:08;102781.25;;;-1.38;69.76
73981;BME280;62348;51.412;5.436;2023-03-01T04:46:35;102775.09;;;-1.39;69.87
73981;BME280;62348;51.412;5.436;2023-03-01T04:49:01;102767.13;;;-1.39;69.67
73981;BME280;62348;51.412;5.436;2023-03-01T04:51:27;102762.81;;;-1.40;70.09
73981;BME280;62348;51.412;5.436;2023-03-01T04:53:53;102761.13;;;-1.41;70.00
73981;BME280;62348;51.412;5.436;2023-03-01T04:56:18;102763.06;;;-1.43;69.91
73981;BME280;62348;51.412;5.436;2023-03-01T04:58:44;102759.72;;;-1.45;69.86
73981;BME280;62348;51.412;5.436;2023-03-01T05:01:20;102762.38;;;-1.45;69.85
73981;BME280;62348;51.412;5.436;2023-03-01T05:03:48;102759.00;;;-1.47;70.00
73981;BME280;62348;51.412;5.436;2023-03-01T05:06:14;102766.13;;;-1.47;70.05
73981;BME280;62348;51.412;5.436;2023-03-01T05:08:41;102768.22;;;-1.51;70.06
73981;BME280;62348;51.412;5.436;2023-03-01T05:11:06;102782.44;;;-1.52;70.50
73981;BME280;62348;51.412;5.436;2023-03-01T05:13:35;102779.66;;;-1.50;70.35
73981;BME280;62348;51.412;5.436;2023-03-01T05:16:02;102773.66;;;-1.52;70.72
73981;BME280;62348;51.412;5.436;2023-03-01T05:18:29;102769.34;;;-1.53;71.07
73981;BME280;62348;51.412;5.436;2023-03-01T05:21:07;102766.53;;;-1.52;70.46
73981;BME280;62348;51.412;5.436;2023-03-01T05:23:33;102764.84;;;-1.53;70.54
73981;BME280;62348;51.412;5.436;2023-03-01T05:26:01;102756.06;;;-1.53;70.44
73981;BME280;62348;51.412;5.436;2023-03-01T05:28:27;102754.38;;;-1.54;70.57
73981;BME280;62348;51.412;5.436;2023-03-01T05:30:54;102751.72;;;-1.54;70.65
73981;BME280;62348;51.412;5.436;2023-03-01T05:33:19;102743.75;;;-1.54;70.82
73981;BME280;62348;51.412;5.436;2023-03-01T05:35:47;102748.94;;;-1.53;70.50
73981;BME280;62348;51.412;5.436;2023-03-01T05:38:14;102734.84;;;-1.53;70.58
73981;BME280;62348;51.412;5.436;2023-03-01T05:40:40;102734.97;;;-1.55;70.70
73981;BME280;62348;51.412;5.436;2023-03-01T05:43:06;102728.69;;;-1.54;70.84
73981;BME280;62348;51.412;5.436;2023-03-01T05:45:32;102739.44;;;-1.55;71.13
73981;BME280;62348;51.412;5.436;2023-03-01T05:47:58;102733.28;;;-1.56;71.09
73981;BME280;62348;51.412;5.436;2023-03-01T05:50:28;102732.31;;;-1.55;71.08
73981;BME280;62348;51.412;5.436;2023-03-01T05:55:22;102739.84;;;-1.60;71.19
73981;BME280;62348;51.412;5.436;2023-03-01T05:57:48;102734.53;;;-1.60;71.28
73981;BME280;62348;51.412;5.436;2023-03-01T06:00:16;102734.53;;;-1.60;71.45
73981;BME280;62348;51.412;5.436;2023-03-01T06:02:42;102723.22;;;-1.62;71.22
73981;BME280;62348;51.412;5.436;2023-03-01T06:05:09;102726.00;;;-1.64;71.69
73981;BME280;62348;51.412;5.436;2023-03-01T06:07:35;102717.34;;;-1.66;71.54
73981;BME280;62348;51.412;5.436;2023-03-01T06:10:02;102716.50;;;-1.66;71.32
73981;BME280;62348;51.412;5.436;2023-03-01T06:12:33;102721.94;;;-1.68;71.71
73981;BME280;62348;51.412;5.436;2023-03-01T06:15:00;102726.78;;;-1.73;71.83
73981;BME280;62348;51.412;5.436;2023-03-01T06:17:28;102731.38;;;-1.75;71.87
73981;BME280;62348;51.412;5.436;2023-03-01T06:19:54;102723.44;;;-1.75;71.44
73981;BME280;62348;51.412;5.436;2023-03-01T06:22:19;102733.22;;;-1.75;72.04
73981;BME280;62348;51.412;5.436;2023-03-01T06:24:44;102727.06;;;-1.76;72.22
73981;BME280;62348;51.412;5.436;2023-03-01T06:27:10;102727.34;;;-1.79;71.71
73981;BME280;62348;51.412;5.436;2023-03-01T06:29:35;102730.81;;;-1.79;71.87
73981;BME280;62348;51.412;5.436;2023-03-01T06:32:02;102738.94;;;-1.80;72.38
73981;BME280;62348;51.412;5.436;2023-03-01T06:34:28;102733.88;;;-1.83;72.13
73981;BME280;62348;51.412;5.436;2023-03-01T06:36:53;102737.34;;;-1.83;71.87
73981;BME280;62348;51.412;5.436;2023-03-01T06:39:18;102738.94;;;-1.80;72.24
73981;BME280;62348;51.412;5.436;2023-03-01T06:41:44;102735.41;;;-1.81;72.20
73981;BME280;62348;51.412;5.436;2023-03-01T06:44:10;102738.06;;;-1.81;72.11
73981;BME280;62348;51.412;5.436;2023-03-01T06:46:35;102729.28;;;-1.81;72.43
73981;BME280;62348;51.412;5.436;2023-03-01T06:49:01;102736.28;;;-1.80;72.24
73981;BME280;62348;51.412;5.436;2023-03-01T06:51:30;102729.97;;;-1.79;72.02
73981;BME280;62348;51.412;5.436;2023-03-01T06:53:55;102736.28;;;-1.80;71.93
73981;BME280;62348;51.412;5.436;2023-03-01T06:56:20;102732.63;;;-1.79;72.78
73981;BME280;62348;51.412;5.436;2023-03-01T06:58:46;102733.47;;;-1.79;72.16
73981;BME280;62348;51.412;5.436;2023-03-01T07:01:11;102724.56;;;-1.78;72.60
73981;BME280;62348;51.412;5.436;2023-03-01T07:03:37;102719.38;;;-1.79;72.45
73981;BME280;62348;51.412;5.436;2023-03-01T07:06:02;102721.91;;;-1.78;72.10
73981;BME280;62348;51.412;5.436;2023-03-01T07:08:28;102722.59;;;-1.75;72.19
73981;BME280;62348;51.412;5.436;2023-03-01T07:10:57;102719.13;;;-1.76;72.87
73981;BME280;62348;51.412;5.436;2023-03-01T07:13:23;102725.00;;;-1.72;72.62
73981;BME280;62348;51.412;5.436;2023-03-01T07:15:48;102729.44;;;-1.73;72.60
73981;BME280;62348;51.412;5.436;2023-03-01T07:18:13;102745.09;;;-1.70;72.76
73981;BME280;62348;51.412;5.436;2023-03-01T07:20:39;102747.34;;;-1.65;71.80
73981;BME280;62348;51.412;5.436;2023-03-01T07:23:05;102743.47;;;-1.61;72.13
73981;BME280;62348;51.412;5.436;2023-03-01T07:25:31;102755.38;;;-1.55;71.72
73981;BME280;62348;51.412;5.436;2023-03-01T07:27:57;102749.66;;;-1.51;71.87
73981;BME280;62348;51.412;5.436;2023-03-01T07:30:23;102754.84;;;-1.40;71.76
73981;BME280;62348;51.412;5.436;2023-03-01T07:32:51;102750.00;;;-1.34;71.22
73981;BME280;62348;51.412;5.436;2023-03-01T07:35:17;102760.88;;;-1.28;70.78
73981;BME280;62348;51.412;5.436;2023-03-01T07:37:43;102749.59;;;-1.20;70.69
73981;BME280;62348;51.412;5.436;2023-03-01T07:40:09;102748.22;;;-1.14;70.19
73981;BME280;62348;51.412;5.436;2023-03-01T07:42:34;102752.00;;;-1.07;70.39
73981;BME280;62348;51.412;5.436;2023-03-01T07:45:00;102756.63;;;-1.00;70.31
73981;BME280;62348;51.412;5.436;2023-03-01T07:47:25;102753.97;;;-0.90;70.05
73981;BME280;62348;51.412;5.436;2023-03-01T07:49:51;102755.81;;;-0.81;69.79
73981;BME280;62348;51.412;5.436;2023-03-01T07:52:16;102756.63;;;-0.70;68.93
73981;BME280;62348;51.412;5.436;2023-03-01T07:54:45;102755.81;;;-0.61;69.08
73981;BME280;62348;51.412;5.436;2023-03-01T07:57:10;102748.81;;;-0.52;68.23
73981;BME280;62348;51.412;5.436;2023-03-01T07:59:36;102742.66;;;-0.43;68.57
73981;BME280;62348;51.412;5.436;2023-03-01T08:02:01;102751.06;;;-0.28;68.43
73981;BME280;62348;51.412;5.436;2023-03-01T08:04:26;102750.16;;;-0.19;67.57
73981;BME280;62348;51.412;5.436;2023-03-01T08:06:53;102752.66;;;-0.08;67.21
73981;BME280;62348;51.412;5.436;2023-03-01T08:09:18;102750.97;;;0.01;66.81
73981;BME280;62348;51.412;5.436;2023-03-01T08:11:44;102748.00;;;0.14;66.47
73981;BME280;62348;51.412;5.436;2023-03-01T08:14:09;102747.97;;;0.24;66.52
73981;BME280;62348;51.412;5.436;2023-03-01T08:16:36;102743.44;;;0.34;65.92
73981;BME280;62348;51.412;5.436;2023-03-01T08:19:09;102736.13;;;0.46;65.89
73981;BME280;62348;51.412;5.436;2023-03-01T08:21:36;102739.56;;;0.56;65.96
73981;BME280;62348;51.412;5.436;2023-03-01T08:24:03;102744.00;;;0.65;64.88
73981;BME280;62348;51.412;5.436;2023-03-01T08:26:29;102742.44;;;0.72;65.21
73981;BME280;62348;51.412;5.436;2023-03-01T08:28:55;102740.41;;;0.84;64.44
73981;BME280;62348;51.412;5.436;2023-03-01T08:31:27;102743.00;;;0.94;64.26
73981;BME280;62348;51.412;5.436;2023-03-01T08:33:55;102740.81;;;1.07;63.56
73981;BME280;62348;51.412;5.436;2023-03-01T08:36:26;102736.75;;;1.21;63.92
73981;BME280;62348;51.412;5.436;2023-03-01T08:38:52;102731.34;;;1.31;62.84
73981;BME280;62348;51.412;5.436;2023-03-01T08:41:18;102724.81;;;1.43;62.33
73981;BME280;62348;51.412;5.436;2023-03-01T08:43:43;102729.22;;;1.52;62.60
73981;BME280;62348;51.412;5.436;2023-03-01T08:46:09;102729.81;;;1.64;62.46
73981;BME280;62348;51.412;5.436;2023-03-01T08:48:35;102721.03;;;1.72;61.63
73981;BME280;62348;51.412;5.436;2023-03-01T08:51:12;102719.13;;;1.82;61.86
73981;BME280;62348;51.412;5.436;2023-03-01T08:53:38;102726.66;;;1.95;61.01
73981;BME280;62348;51.412;5.436;2023-03-01T08:56:03;102712.53;;;2.03;60.62
73981;BME280;62348;51.412;5.436;2023-03-01T08:58:29;102722.13;;;2.13;59.75
73981;BME280;62348;51.412;5.436;2023-03-01T09:00:55;102728.34;;;2.22;59.65
73981;BME280;62348;51.412;5.436;2023-03-01T09:03:22;102713.53;;;2.28;59.82
73981;BME280;62348;51.412;5.436;2023-03-01T09:05:47;102705.69;;;2.34;58.81
73981;BME280;62348;51.412;5.436;2023-03-01T09:08:15;102716.75;;;2.40;59.67
73981;BME280;62348;51.412;5.436;2023-03-01T09:10:41;102709.25;;;2.43;58.94
73981;BME280;62348;51.412;5.436;2023-03-01T09:13:06;102701.25;;;2.43;59.25
73981;BME280;62348;51.412;5.436;2023-03-01T09:15:32;102699.75;;;2.49;58.58
73981;BME280;62348;51.412;5.436;2023-03-01T09:17:58;102701.94;;;2.53;59.18
73981;BME280;62348;51.412;5.436;2023-03-01T09:20:24;102699.63;;;2.59;58.88
73981;BME280;62348;51.412;5.436;2023-03-01T09:22:49;102690.28;;;2.63;58.32
73981;BME280;62348;51.412;5.436;2023-03-01T09:25:15;102694.66;;;2.72;58.81
73981;BME280;62348;51.412;5.436;2023-03-01T09:27:40;102689.16;;;2.73;57.14
73981;BME280;62348;51.412;5.436;2023-03-01T09:30:06;102690.34;;;2.79;57.80
73981;BME280;62348;51.412;5.436;2023-03-01T09:32:32;102688.50;;;2.88;58.56
73981;BME280;62348;51.412;5.436;2023-03-01T09:34:58;102690.03;;;2.99;58.56
73981;BME280;62348;51.412;5.436;2023-03-01T09:37:29;102688.53;;;3.04;58.11
73981;BME280;62348;51.412;5.436;2023-03-01T09:39:54;102687.03;;;3.10;56.73
73981;BME280;62348;51.412;5.436;2023-03-01T09:42:20;102685.19;;;3.19;56.86
73981;BME280;62348;51.412;5.436;2023-03-01T09:44:59;102675.19;;;3.21;57.13
73981;BME280;62348;51.412;5.436;2023-03-01T09:47:30;102665.81;;;3.25;56.21
73981;BME280;62348;51.412;5.436;2023-03-01T09:50:13;102664.31;;;3.30;56.74
73981;BME280;62348;51.412;5.436;2023-03-01T10:05:35;102649.22;;;3.62;55.21
73981;BME280;62348;51.412;5.436;2023-03-01T10:10:36;102633.84;;;3.64;53.67
73981;BME280;62348;51.412;5.436;2023-03-01T10:13:28;102635.50;;;3.65;53.77
73981;BME280;62348;51.412;5.436;2023-03-01T10:16:14;102625.84;;;3.64;53.92
73981;BME280;62348;51.412;5.436;2023-03-01T10:18:43;102628.84;;;3.61;53.77
73981;BME280;62348;51.412;5.436;2023-03-01T10:21:17;102626.00;;;3.63;54.33
73981;BME280;62348;51.412;5.436;2023-03-01T10:23:43;102616.63;;;3.67;54.12
73981;BME280;62348;51.412;5.436;2023-03-01T10:26:12;102614.44;;;3.70;54.47
73981;BME280;62348;51.412;5.436;2023-03-01T10:31:26;102605.19;;;3.81;53.98
73981;BME280;62348;51.412;5.436;2023-03-01T10:34:02;102596.50;;;3.87;54.15
73981;BME280;62348;51.412;5.436;2023-03-01T10:36:32;102599.28;;;3.94;53.50
73981;BME280;62348;51.412;5.436;2023-03-01T10:38:58;102594.59;;;3.96;53.13
73981;BME280;62348;51.412;5.436;2023-03-01T10:41:26;102599.78;;;3.98;52.90
73981;BME280;62348;51.412;5.436;2023-03-01T10:43:57;102599.59;;;3.99;53.73
73981;BME280;62348;51.412;5.436;2023-03-01T10:46:36;102601.25;;;4.00;52.87
73981;BME280;62348;51.412;5.436;2023-03-01T10:51:32;102593.72;;;4.04;53.66
73981;BME280;62348;51.412;5.436;2023-03-01T10:53:58;102601.25;;;4.08;55.15
73981;BME280;62348;51.412;5.436;2023-03-01T10:56:23;102599.44;;;4.01;52.23
73981;BME280;62348;51.412;5.436;2023-03-01T10:58:58;102603.78;;;4.02;52.75
73981;BME280;62348;51.412;5.436;2023-03-01T11:01:27;102604.78;;;4.01;52.65
73981;BME280;62348;51.412;5.436;2023-03-01T11:04:10;102602.13;;;4.01;53.05
73981;BME280;62348;51.412;5.436;2023-03-01T11:06:39;102594.09;;;4.01;53.33
73981;BME280;62348;51.412;5.436;2023-03-01T11:09:23;102598.75;;;4.07;53.61
73981;BME280;62348;51.412;5.436;2023-03-01T11:11:54;102600.22;;;4.09;53.24
73981;BME280;62348;51.412;5.436;2023-03-01T11:14:27;102600.22;;;4.09;52.58
73981;BME280;62348;51.412;5.436;2023-03-01T11:17:23;102597.03;;;4.14;53.11
73981;BME280;62348;51.412;5.436;2023-03-01T11:22:48;102595.19;;;4.15;51.62
73981;BME280;62348;51.412;5.436;2023-03-01T11:25:17;102595.69;;;4.18;51.74
73981;BME280;62348;51.412;5.436;2023-03-01T11:27:45;102587.31;;;4.21;51.64
73981;BME280;62348;51.412;5.436;2023-03-01T11:30:27;102588.78;;;4.24;51.59
73981;BME280;62348;51.412;5.436;2023-03-01T11:36:05;102579.94;;;4.23;51.95
73981;BME280;62348;51.412;5.436;2023-03-01T11:38:34;102586.94;;;4.24;52.11
73981;BME280;62348;51.412;5.436;2023-03-01T11:41:15;102582.72;;;4.30;51.95
73981;BME280;62348;51.412;5.436;2023-03-01T11:53:59;102565.41;;;4.41;50.35
73981;BME280;62348;51.412;5.436;2023-03-01T11:56:32;102567.94;;;4.42;52.41
73981;BME280;62348;51.412;5.436;2023-03-01T12:05:44;102554.00;;;4.47;51.38
73981;BME280;62348;51.412;5.436;2023-03-01T12:10:40;102549.66;;;4.46;49.16
73981;BME280;62348;51.412;5.436;2023-03-01T12:16:20;102542.28;;;4.48;50.81
73981;BME280;62348;51.412;5.436;2023-03-01T12:19:31;102541.72;;;4.53;51.04
73981;BME280;62348;51.412;5.436;2023-03-01T12:22:04;102536.91;;;4.48;49.76
73981;BME280;62348;51.412;5.436;2023-03-01T12:35:54;102524.44;;;4.55;51.01
73981;BME280;62348;51.412;5.436;2023-03-01T12:38:54;102520.44;;;4.59;51.60
73981;BME280;62348;51.412;5.436;2023-03-01T12:44:52;102510.63;;;4.66;50.88
73981;BME280;62348;51.412;5.436;2023-03-01T12:50:20;102507.47;;;4.63;50.60
73981;BME280;62348;51.412;5.436;2023-03-01T12:52:51;102495.09;;;4.62;49.31
73981;BME280;62348;51.412;5.436;2023-03-01T12:55:38;102493.91;;;4.64;50.76
73981;BME280;62348;51.412;5.436;2023-03-01T12:58:23;102483.19;;;4.64;50.37
73981;BME280;62348;51.412;5.436;2023-03-01T13:11:26;102471.09;;;4.68;50.03
73981;BME280;62348;51.412;5.436;2023-03-01T13:16:49;102459.84;;;4.73;49.78
73981;BME280;62348;51.412;5.436;2023-03-01T13:19:17;102455.69;;;4.71;49.31
73981;BME280;62348;51.412;5.436;2023-03-01T13:21:44;102446.63;;;4.72;50.44
73981;BME280;62348;51.412;5.436;2023-03-01T13:24:41;102438.69;;;4.78;50.08
73981;BME280;62348;51.412;5.436;2023-03-01T13:32:33;102439.34;;;4.80;49.88
73981;BME280;62348;51.412;5.436;2023-03-01T13:37:41;102433.97;;;4.80;50.00
73981;BME280;62348;51.412;5.436;2023-03-01T13:43:54;102410.31;;;4.84;49.59
73981;BME280;62348;51.412;5.436;2023-03-01T13:46:21;102399.41;;;4.85;49.03
73981;BME280;62348;51.412;5.436;2023-03-01T13:48:53;102389.06;;;4.82;49.77
73981;BME280;62348;51.412;5.436;2023-03-01T13:51:25;102389.53;;;4.86;48.98
73981;BME280;62348;51.412;5.436;2023-03-01T13:53:52;102389.53;;;4.86;48.44
73981;BME280;62348;51.412;5.436;2023-03-01T13:56:25;102394.91;;;4.86;49.08
73981;BME280;62348;51.412;5.436;2023-03-01T13:59:01;102395.06;;;4.84;49.65
73981;BME280;62348;51.412;5.436;2023-03-01T14:01:35;102393.22;;;4.85;49.64
73981;BME280;62348;51.412;5.436;2023-03-01T14:04:03;102388.69;;;4.85;49.81
73981;BME280;62348;51.412;5.436;2023-03-01T14:06:33;102385.47;;;4.90;48.83
73981;BME280;62348;51.412;5.436;2023-03-01T14:09:19;102378.41;;;4.89;48.88
73981;BME280;62348;51.412;5.436;2023-03-01T14:12:16;102381.28;;;4.87;48.94
73981;BME280;62348;51.412;5.436;2023-03-01T14:20:28;102369.38;;;4.90;48.88
73981;BME280;62348;51.412;5.436;2023-03-01T14:22:58;102376.03;;;4.94;48.41
73981;BME280;62348;51.412;5.436;2023-03-01T14:25:32;102363.44;;;4.95;48.89
73981;BME280;62348;51.412;5.436;2023-03-01T14:28:13;102365.75;;;4.98;48.81
73981;BME280;62348;51.412;5.436;2023-03-01T14:30:59;102365.59;;;4.99;49.20
73981;BME280;62348;51.412;5.436;2023-03-01T14:33:33;102368.09;;;5.01;48.97
73981;BME280;62348;51.412;5.436;2023-03-01T14:36:05;102372.41;;;5.02;48.84
73981;BME280;62348;51.412;5.436;2023-03-01T14:41:00;102367.06;;;5.02;49.43
73981;BME280;62348;51.412;5.436;2023-03-01T14:43:29;102360.03;;;5.01;49.79
73981;BME280;62348;51.412;5.436;2023-03-01T14:45:55;102358.00;;;5.03;48.28
73981;BME280;62348;51.412;5.436;2023-03-01T14:48:21;102355.97;;;5.05;48.42
73981;BME280;62348;51.412;5.436;2023-03-01T14:50:47;102345.59;;;5.02;47.78
73981;BME280;62348;51.412;5.436;2023-03-01T14:53:19;102337.09;;;4.98;48.79
73981;BME280;62348;51.412;5.436;2023-03-01T14:55:54;102336.75;;;5.01;49.38
73981;BME280;62348;51.412;5.436;2023-03-01T14:58:22;102335.72;;;5.02;48.83
73981;BME280;62348;51.412;5.436;2023-03-01T15:00:56;102333.22;;;5.01;48.47